Time;durP1;ratioP1;P1;durP2;ratioP2;P2;SDS_P1;SDS_P2;PMS_P1;PMS_P2;Temp;Humidity;BMP_temperature;BMP_pressure;BME280_temperature;BME280_humidity;BME280_pressure;Samples;Min_cycle;Max_cycle;Signal;HPM_P1;HPM_P2
2024/02/05 00:00:06;;;;;;;29.05;26.33;;;;;;;;;;5044994;28;20025;-57
2024/02/05 00:02:31;;;;;;;;;;;;;;;;;;5039351;28;20075;-56
2024/02/05 00:04:57;;;;;;;27.83;25.40;;;;;;;;;;5037577;28;20379;-55
2024/02/05 00:07:23;;;;;;;29.13;26.73;;;;;;;;;;5040226;28;20029;-56
2024/02/05 00:09:49;;;;;;;30.65;27.55;;;;;;;;;;5038166;28;20021;-57
2024/02/05 00:12:16;;;;;;;30.58;28.08;;;;;;;;;;5037144;28;20035;-55
2024/02/05 00:14:42;;;;;;;29.17;26.77;;;;;;;;;;5036445;28;20017;-58
2024/02/05 00:17:09;;;;;;;30.67;27.55;;;;;;;;;;5038030;28;20037;-59
2024/02/05 00:19:35;;;;;;;30.25;27.58;;;;;;;;;;5036578;28;20509;-58
2024/02/05 00:22:02;;;;;;;31.92;29.40;;;;;;;;;;5037702;28;20030;-58
2024/02/05 00:24:28;;;;;;;30.90;28.40;;;;;;;;;;5036026;28;20025;-57
2024/02/05 00:26:54;;;;;;;38.05;35.08;;;;;;;;;;5038624;28;20772;-57
2024/02/05 00:29:20;;;;;;;34.47;31.45;;;;;;;;;;5038852;28;20017;-57
2024/02/05 00:31:46;;;;;;;32.78;30.15;;;;;;;;;;5035773;28;20035;-57
2024/02/05 00:34:12;;;;;;;36.22;31.55;;;;;;;;;;5038399;28;20037;-59
2024/02/05 00:36:38;;;;;;;35.05;32.28;;;;;;;;;;5036782;28;20087;-59
2024/02/05 00:39:05;;;;;;;34.95;32.15;;;;;;;;;;5037822;28;20029;-58
2024/02/05 00:41:31;;;;;;;34.42;31.65;;;;;;;;;;5035460;28;20026;-55
2024/02/05 00:43:57;;;;;;;35.63;32.47;;;;;;;;;;5036854;28;20025;-56
2024/02/05 00:46:23;;;;;;;37.28;33.30;;;;;;;;;;5037487;28;20040;-53
2024/02/05 00:48:50;;;;;;;36.08;32.97;;;;;;;;;;5033541;28;20549;-56
2024/02/05 00:51:16;;;;;;;31.35;28.75;;;;;;;;;;5039480;28;20098;-57
2024/02/05 00:53:42;;;;;;;25.63;23.52;;;;;;;;;;5029032;28;20041;-58
2024/02/05 00:56:08;;;;;;;26.65;24.15;;;;;;;;;;5029671;28;20057;-58
2024/02/05 00:58:34;;;;;;;26.63;24.42;;;;;;;;;;5030177;28;20559;-58
2024/02/05 01:01:00;;;;;;;26.05;23.73;;;;;;;;;;5029040;28;20092;-56
2024/02/05 01:03:26;;;;;;;27.77;25.48;;;;;;;;;;5029861;28;20615;-57
2024/02/05 01:05:52;;;;;;;27.30;25.10;;;;;;;;;;5029914;28;20037;-59
2024/02/05 01:08:18;;;;;;;28.17;25.73;;;;;;;;;;5029820;28;20079;-58
2024/02/05 01:10:44;;;;;;;29.02;26.42;;;;;;;;;;5029979;28;20037;-57
2024/02/05 01:13:10;;;;;;;31.30;28.52;;;;;;;;;;5029690;28;20021;-57
2024/02/05 01:15:36;;;;;;;30.95;28.10;;;;;;;;;;5030285;28;20557;-55
2024/02/05 01:18:02;;;;;;;30.23;27.55;;;;;;;;;;5030104;28;20499;-55
2024/02/05 01:20:29;;;;;;;28.80;26.48;;;;;;;;;;5028567;28;20627;-56
2024/02/05 01:22:55;;;;;;;27.70;25.50;;;;;;;;;;5029729;28;20606;-58
2024/02/05 01:25:21;;;;;;;29.65;27.23;;;;;;;;;;5029940;28;20025;-59
2024/02/05 01:27:47;;;;;;;30.67;28.25;;;;;;;;;;5029895;28;20108;-57
2024/02/05 01:30:13;;;;;;;31.52;28.50;;;;;;;;;;5029649;28;20033;-60
2024/02/05 01:32:40;;;;;;;28.95;26.75;;;;;;;;;;5029032;28;20032;-57
2024/02/05 01:35:06;;;;;;;29.48;27.17;;;;;;;;;;5030017;28;20039;-56
2024/02/05 01:37:32;;;;;;;29.95;27.65;;;;;;;;;;5029122;28;20026;-55
2024/02/05 01:39:58;;;;;;;28.98;26.67;;;;;;;;;;5030495;28;20032;-56
2024/02/05 01:42:24;;;;;;;28.60;26.20;;;;;;;;;;5029348;28;20029;-57
2024/02/05 01:44:51;;;;;;;31.77;29.05;;;;;;;;;;5029832;28;20068;-55
2024/02/05 01:47:17;;;;;;;27.52;25.33;;;;;;;;;;5029679;28;20033;-56
2024/02/05 01:49:45;;;;;;;27.30;25.10;;;;;;;;;;5030261;28;20545;-56
2024/02/05 01:52:14;;;;;;;28.50;25.92;;;;;;;;;;5029826;28;20037;-60
2024/02/05 01:54:41;;;;;;;25.73;23.65;;;;;;;;;;5029787;28;20476;-56
2024/02/05 01:57:10;;;;;;;25.15;23.02;;;;;;;;;;5029708;28;20029;-58
2024/02/05 01:59:37;;;;;;;26.38;23.90;;;;;;;;;;5029434;28;20030;-54
2024/02/05 02:02:03;;;;;;;25.90;23.42;;;;;;;;;;5029553;28;20029;-58
2024/02/05 02:04:29;;;;;;;24.25;22.15;;;;;;;;;;5029669;28;20048;-58
2024/02/05 02:06:55;;;;;;;22.90;20.90;;;;;;;;;;5029551;28;20502;-57
2024/02/05 02:09:22;;;;;;;21.98;19.98;;;;;;;;;;5029767;28;20022;-58
2024/02/05 02:11:48;;;;;;;20.48;18.65;;;;;;;;;;5027845;28;20044;-57
2024/02/05 02:14:14;;;;;;;22.88;20.75;;;;;;;;;;5028354;28;20108;-57
2024/02/05 02:16:40;;;;;;;30.13;18.50;;;;;;;;;;5029670;28;20132;-59
2024/02/05 02:19:21;;;;;;;20.15;15.30;;;;;;;;;;5029650;28;20399;-57
2024/02/05 02:21:52;;;;;;;16.33;11.00;;;;;;;;;;5029668;28;20021;-60
2024/02/05 02:24:18;;;;;;;13.82;9.40;;;;;;;;;;5029515;28;20025;-56
2024/02/05 02:26:44;;;;;;;19.88;10.30;;;;;;;;;;5029517;28;20061;-55
2024/02/05 02:29:10;;;;;;;13.40;8.10;;;;;;;;;;5029508;28;20060;-58
2024/02/05 02:31:37;;;;;;;37.75;12.13;;;;;;;;;;5029419;28;20029;-56
2024/02/05 02:34:26;;;;;;;14.55;9.32;;;;;;;;;;5028726;28;20146;-59
2024/02/05 02:36:55;;;;;;;13.50;8.10;;;;;;;;;;5029666;28;20099;-58
2024/02/05 02:39:26;;;;;;;15.18;8.75;;;;;;;;;;5029649;28;20021;-55
2024/02/05 02:41:54;;;;;;;13.40;7.90;;;;;;;;;;5029027;28;20420;-59
2024/02/05 02:44:20;;;;;;;;;;;;;;;;;;5031890;28;20039;-59
2024/02/05 02:46:46;;;;;;;15.38;9.13;;;;;;;;;;5033025;28;20394;-55
2024/02/05 02:49:12;;;;;;;14.13;8.90;;;;;;;;;;5033004;28;20037;-54
2024/02/05 02:51:38;;;;;;;12.00;7.07;;;;;;;;;;5032234;28;20041;-57
2024/02/05 02:54:04;;;;;;;12.18;7.13;;;;;;;;;;5032733;28;20391;-56
2024/02/05 02:56:30;;;;;;;11.93;6.93;;;;;;;;;;5032356;28;20017;-57
2024/02/05 02:58:56;;;;;;;12.45;8.27;;;;;;;;;;5032531;28;20026;-57
2024/02/05 03:01:23;;;;;;;14.63;7.63;;;;;;;;;;5032384;28;20017;-57
2024/02/05 03:03:49;;;;;;;28.33;8.05;;;;;;;;;;5032112;28;20104;-57
2024/02/05 03:06:15;;;;;;;12.90;8.73;;;;;;;;;;5032522;28;20463;-58
2024/02/05 03:08:41;;;;;;;19.17;9.82;;;;;;;;;;5032667;28;20045;-56
2024/02/05 03:11:07;;;;;;;12.48;7.30;;;;;;;;;;5032026;28;20060;-59
2024/02/05 03:13:33;;;;;;;12.90;7.40;;;;;;;;;;5031830;28;20041;-58
2024/02/05 03:15:59;;;;;;;16.08;9.27;;;;;;;;;;5032062;28;20425;-56
2024/02/05 03:18:25;;;;;;;13.15;7.72;;;;;;;;;;5032423;28;20103;-59
2024/02/05 03:20:51;;;;;;;11.80;6.88;;;;;;;;;;5032036;28;20061;-56
2024/02/05 03:23:17;;;;;;;12.75;7.97;;;;;;;;;;5030526;28;20475;-58
2024/02/05 03:25:43;;;;;;;15.68;8.52;;;;;;;;;;5031529;28;20032;-57
2024/02/05 03:28:09;;;;;;;14.60;8.05;;;;;;;;;;5032070;28;20096;-55
2024/02/05 03:30:36;;;;;;;15.00;7.18;;;;;;;;;;5031701;28;20046;-55
2024/02/05 03:33:03;;;;;;;12.90;7.57;;;;;;;;;;5031593;28;20090;-56
2024/02/05 03:35:29;;;;;;;14.23;7.40;;;;;;;;;;5031955;28;20028;-52
2024/02/05 03:37:55;;;;;;;18.23;8.68;;;;;;;;;;5031968;28;20025;-56
2024/02/05 03:40:22;;;;;;;18.35;9.50;;;;;;;;;;5031808;28;20062;-56
2024/02/05 03:42:48;;;;;;;20.73;9.85;;;;;;;;;;5031168;28;20025;-55
2024/02/05 03:45:14;;;;;;;24.88;10.98;;;;;;;;;;5031987;28;20026;-56
2024/02/05 03:47:41;;;;;;;16.98;7.85;;;;;;;;;;5032090;28;20021;-57
2024/02/05 03:50:10;;;;;;;12.65;6.85;;;;;;;;;;5032000;28;20025;-56
2024/02/05 03:52:37;;;;;;;11.88;7.25;;;;;;;;;;5030285;28;20033;-56
2024/02/05 03:55:03;;;;;;;23.23;9.65;;;;;;;;;;5029900;28;20025;-55
2024/02/05 03:57:30;;;;;;;17.50;7.28;;;;;;;;;;5031676;28;20029;-58
2024/02/05 03:59:56;;;;;;;13.77;9.25;;;;;;;;;;5031884;28;20028;-59
2024/02/05 04:02:24;;;;;;;15.05;7.60;;;;;;;;;;5031055;28;20531;-55
2024/02/05 04:04:50;;;;;;;13.75;10.40;;;;;;;;;;5031447;28;20033;-59
2024/02/05 04:07:16;;;;;;;21.77;8.27;;;;;;;;;;5031515;28;20041;-59
2024/02/05 04:09:42;;;;;;;19.73;8.05;;;;;;;;;;5030567;28;20057;-58
2024/02/05 04:12:08;;;;;;;19.90;8.30;;;;;;;;;;5029822;28;20183;-58
2024/02/05 04:14:34;;;;;;;19.50;9.43;;;;;;;;;;5031363;28;20033;-56
2024/02/05 04:17:00;;;;;;;29.27;9.05;;;;;;;;;;5031341;28;20534;-59
2024/02/05 04:19:26;;;;;;;14.50;9.07;;;;;;;;;;5031207;28;20142;-57
2024/02/05 04:21:52;;;;;;;15.20;7.70;;;;;;;;;;5030948;28;20083;-57
2024/02/05 04:24:19;;;;;;;12.75;8.05;;;;;;;;;;5031293;28;20100;-57
2024/02/05 04:26:45;;;;;;;12.18;6.80;;;;;;;;;;5031088;28;20036;-56
2024/02/05 04:29:20;;;;;;;10.98;6.28;;;;;;;;;;5031044;28;20021;-53
2024/02/05 04:31:46;;;;;;;10.70;6.32;;;;;;;;;;5030975;28;20025;-54
2024/02/05 04:34:13;;;;;;;18.55;8.48;;;;;;;;;;5030727;28;20037;-58
2024/02/05 04:36:39;;;;;;;13.90;7.70;;;;;;;;;;5031122;28;20022;-59
2024/02/05 04:39:10;;;;;;;17.35;7.15;;;;;;;;;;5030641;28;20022;-58
2024/02/05 04:41:36;;;;;;;11.95;6.80;;;;;;;;;;5030194;28;20025;-54
2024/02/05 04:44:02;;;;;;;15.52;8.07;;;;;;;;;;5030688;28;20025;-57
2024/02/05 04:46:28;;;;;;;13.30;7.57;;;;;;;;;;5030285;28;20510;-58
2024/02/05 04:48:54;;;;;;;12.52;7.47;;;;;;;;;;5030509;28;20044;-56
2024/02/05 04:51:20;;;;;;;18.40;9.80;;;;;;;;;;5030324;28;20041;-58
2024/02/05 04:53:46;;;;;;;13.63;7.85;;;;;;;;;;5030788;28;20080;-58
2024/02/05 04:56:12;;;;;;;45.13;7.68;;;;;;;;;;5049585;28;20025;-58
2024/02/05 04:58:38;;;;;;;21.17;7.35;;;;;;;;;;5050227;28;20020;-59
2024/02/05 05:01:04;;;;;;;10.80;6.20;;;;;;;;;;5049940;28;20029;-58
2024/02/05 05:03:33;;;;;;;12.80;6.95;;;;;;;;;;5049956;28;20025;-60
2024/02/05 05:05:59;;;;;;;15.52;8.45;;;;;;;;;;5049694;28;20102;-60
2024/02/05 05:08:25;;;;;;;11.73;7.30;;;;;;;;;;5049469;28;20500;-57
2024/02/05 05:10:51;;;;;;;15.18;10.82;;;;;;;;;;5049861;28;20033;-56
2024/02/05 05:13:17;;;;;;;13.23;7.60;;;;;;;;;;5049955;28;20036;-57
2024/02/05 05:15:43;;;;;;;13.48;7.82;;;;;;;;;;5050248;28;20025;-58
2024/02/05 05:18:09;;;;;;;18.67;6.70;;;;;;;;;;5049947;28;20021;-57
2024/02/05 05:20:35;;;;;;;20.63;8.18;;;;;;;;;;5049872;28;20531;-56
2024/02/05 05:23:01;;;;;;;12.13;8.65;;;;;;;;;;5049738;28;20104;-57
2024/02/05 05:25:27;;;;;;;12.32;7.40;;;;;;;;;;5048498;28;20068;-59
2024/02/05 05:27:53;;;;;;;12.00;7.03;;;;;;;;;;5049747;28;20101;-55
2024/02/05 05:30:19;;;;;;;13.45;7.25;;;;;;;;;;5049471;28;20024;-54
2024/02/05 05:32:45;;;;;;;12.00;7.22;;;;;;;;;;5049164;28;20411;-58
2024/02/05 05:35:11;;;;;;;13.30;6.55;;;;;;;;;;5049532;28;20028;-58
2024/02/05 05:37:37;;;;;;;14.75;9.10;;;;;;;;;;5049078;28;20029;-60
2024/02/05 05:40:04;;;;;;;15.70;8.63;;;;;;;;;;5049530;28;20104;-58
2024/02/05 05:42:30;;;;;;;16.42;10.52;;;;;;;;;;5049303;28;20021;-52
2024/02/05 05:44:56;;;;;;;18.55;11.05;;;;;;;;;;5049443;28;20029;-57
2024/02/05 05:47:22;;;;;;;13.02;7.55;;;;;;;;;;5050045;28;20348;-58
2024/02/05 05:49:48;;;;;;;12.23;7.38;;;;;;;;;;5049822;28;20029;-56
2024/02/05 05:52:14;;;;;;;11.30;6.60;;;;;;;;;;5050692;28;20594;-54
2024/02/05 05:54:40;;;;;;;13.60;7.80;;;;;;;;;;5049231;28;20602;-54
2024/02/05 05:57:06;;;;;;;18.42;7.60;;;;;;;;;;5049477;28;20040;-57
2024/02/05 05:59:32;;;;;;;15.95;7.80;;;;;;;;;;5049029;28;20057;-58
2024/02/05 06:01:58;;;;;;;12.80;8.45;;;;;;;;;;5048751;28;20078;-58
2024/02/05 06:04:25;;;;;;;16.20;7.35;;;;;;;;;;5049235;28;20096;-58
2024/02/05 06:06:51;;;;;;;11.85;7.25;;;;;;;;;;5049063;28;20429;-58
2024/02/05 06:09:18;;;;;;;15.82;7.68;;;;;;;;;;5050186;28;20025;-58
2024/02/05 06:11:48;;;;;;;20.20;10.40;;;;;;;;;;5048908;28;20029;-56
2024/02/05 06:14:14;;;;;;;14.70;7.57;;;;;;;;;;5048901;28;20052;-59
2024/02/05 06:16:40;;;;;;;19.70;8.10;;;;;;;;;;5049245;28;20021;-56
2024/02/05 06:19:06;;;;;;;16.67;9.25;;;;;;;;;;5050855;28;20233;-57
2024/02/05 06:21:32;;;;;;;12.38;7.32;;;;;;;;;;5052074;28;20060;-56
2024/02/05 06:23:58;;;;;;;13.05;8.13;;;;;;;;;;5051614;28;20068;-56
2024/02/05 06:26:24;;;;;;;14.82;8.07;;;;;;;;;;5053040;28;20483;-56
2024/02/05 06:28:50;;;;;;;15.20;8.88;;;;;;;;;;5052768;28;20025;-52
2024/02/05 06:31:16;;;;;;;14.93;8.77;;;;;;;;;;5051161;28;20031;-56
2024/02/05 06:33:42;;;;;;;24.85;12.48;;;;;;;;;;5052518;28;20025;-59
2024/02/05 06:36:09;;;;;;;15.15;8.32;;;;;;;;;;5052752;28;20021;-56
2024/02/05 06:38:35;;;;;;;13.23;7.88;;;;;;;;;;5052508;28;20017;-58
2024/02/05 06:41:02;;;;;;;14.93;10.00;;;;;;;;;;5050841;28;20178;-59
2024/02/05 06:43:30;;;;;;;17.15;9.73;;;;;;;;;;5052373;28;20064;-58
2024/02/05 06:45:56;;;;;;;15.77;9.60;;;;;;;;;;5052561;28;20036;-58
2024/02/05 06:48:22;;;;;;;19.92;11.27;;;;;;;;;;5052735;28;20384;-62
2024/02/05 06:50:48;;;;;;;13.35;8.13;;;;;;;;;;5051909;28;20029;-56
2024/02/05 06:53:14;;;;;;;14.00;8.57;;;;;;;;;;5051631;28;20032;-58
2024/02/05 06:55:40;;;;;;;13.95;8.77;;;;;;;;;;5052901;28;20024;-60
2024/02/05 06:58:08;;;;;;;16.70;10.00;;;;;;;;;;5052074;28;20636;-58
2024/02/05 07:00:34;;;;;;;14.50;8.82;;;;;;;;;;5050505;28;20021;-61
2024/02/05 07:03:00;;;;;;;14.55;9.93;;;;;;;;;;5051522;28;20118;-60
2024/02/05 07:05:26;;;;;;;15.98;9.82;;;;;;;;;;5052019;28;20029;-57
2024/02/05 07:07:52;;;;;;;16.75;9.35;;;;;;;;;;5052512;28;20441;-58
2024/02/05 07:10:18;;;;;;;18.58;11.27;;;;;;;;;;5052093;28;20177;-57
2024/02/05 07:12:44;;;;;;;15.20;8.50;;;;;;;;;;5051936;28;20363;-57
2024/02/05 07:15:10;;;;;;;17.40;9.45;;;;;;;;;;5051993;28;20121;-60
2024/02/05 07:17:36;;;;;;;15.48;9.18;;;;;;;;;;5051758;28;20021;-59
2024/02/05 07:20:03;;;;;;;13.70;8.40;;;;;;;;;;5052195;28;20025;-58
2024/02/05 07:22:29;;;;;;;13.35;8.05;;;;;;;;;;5051502;28;20021;-59
2024/02/05 07:24:55;;;;;;;19.83;10.32;;;;;;;;;;5051684;28;20056;-57
2024/02/05 07:27:26;;;;;;;13.55;8.32;;;;;;;;;;5051901;28;20060;-58
2024/02/05 07:29:52;;;;;;;14.60;8.80;;;;;;;;;;5051005;28;20024;-56
2024/02/05 07:32:18;;;;;;;23.20;10.43;;;;;;;;;;5051323;28;20107;-57
2024/02/05 07:34:45;;;;;;;14.52;8.00;;;;;;;;;;5052083;28;20064;-57
2024/02/05 07:37:11;;;;;;;13.30;8.00;;;;;;;;;;5051603;28;20609;-57
2024/02/05 07:39:37;;;;;;;23.10;11.30;;;;;;;;;;5052512;28;20372;-56
2024/02/05 07:42:03;;;;;;;16.98;11.35;;;;;;;;;;5051452;28;20494;-59
2024/02/05 07:44:30;;;;;;;21.85;8.98;;;;;;;;;;5051352;28;20028;-55
2024/02/05 07:46:56;;;;;;;13.23;7.82;;;;;;;;;;5051059;28;20052;-54
2024/02/05 07:49:22;;;;;;;19.00;9.80;;;;;;;;;;5051197;28;20033;-53
2024/02/05 07:51:49;;;;;;;13.40;7.93;;;;;;;;;;5051338;28;20033;-55
2024/02/05 07:54:19;;;;;;;14.98;9.75;;;;;;;;;;5051654;28;20021;-54
2024/02/05 07:56:45;;;;;;;17.55;10.55;;;;;;;;;;5051239;28;20045;-53
2024/02/05 07:59:11;;;;;;;14.32;8.77;;;;;;;;;;5050986;28;20035;-59
2024/02/05 08:01:40;;;;;;;16.38;10.18;;;;;;;;;;5051017;28;20092;-57
2024/02/05 08:04:06;;;;;;;13.30;8.07;;;;;;;;;;5049878;28;20430;-60
2024/02/05 08:06:32;;;;;;;12.93;7.68;;;;;;;;;;5050912;28;20483;-60
2024/02/05 08:08:58;;;;;;;18.98;8.73;;;;;;;;;;5051156;28;20060;-57
2024/02/05 08:11:25;;;;;;;18.40;9.40;;;;;;;;;;5050252;28;20029;-60
2024/02/05 08:13:51;;;;;;;15.40;10.13;;;;;;;;;;5050336;28;20035;-55
2024/02/05 08:16:17;;;;;;;14.20;10.18;;;;;;;;;;5050929;28;20017;-58
2024/02/05 08:18:43;;;;;;;20.45;15.93;;;;;;;;;;5051115;28;20040;-55
2024/02/05 08:21:09;;;;;;;14.50;8.00;;;;;;;;;;5049218;28;20031;-57
2024/02/05 08:23:35;;;;;;;20.55;9.43;;;;;;;;;;5051426;28;20048;-53
2024/02/05 08:26:02;;;;;;;12.90;7.80;;;;;;;;;;5037171;28;20037;-58
2024/02/05 08:28:28;;;;;;;22.17;11.40;;;;;;;;;;5031043;28;20025;-55
2024/02/05 08:30:54;;;;;;;13.10;7.93;;;;;;;;;;5051275;28;20057;-54
2024/02/05 08:33:20;;;;;;;18.75;9.25;;;;;;;;;;5050075;28;20033;-59
2024/02/05 08:35:46;;;;;;;14.10;8.68;;;;;;;;;;5050430;28;20657;-55
2024/02/05 08:38:12;;;;;;;28.05;11.68;;;;;;;;;;5040962;28;20082;-52
2024/02/05 08:40:38;;;;;;;13.68;8.38;;;;;;;;;;5030105;28;20030;-57
2024/02/05 08:43:05;;;;;;;14.65;9.27;;;;;;;;;;5030371;28;20408;-54
2024/02/05 08:45:31;;;;;;;17.70;11.48;;;;;;;;;;5030472;28;20014;-59
2024/02/05 08:47:59;;;;;;;20.58;9.25;;;;;;;;;;5030242;28;20120;-58
2024/02/05 08:50:31;;;;;;;21.75;11.15;;;;;;;;;;5030196;28;20117;-65
2024/02/05 08:52:57;;;;;;;16.63;11.82;;;;;;;;;;5030340;28;20491;-56
2024/02/05 08:55:23;;;;;;;14.30;8.57;;;;;;;;;;5040381;28;20079;-54
2024/02/05 08:57:50;;;;;;;17.55;9.88;;;;;;;;;;5048911;28;20025;-57
2024/02/05 09:00:17;;;;;;;18.08;11.13;;;;;;;;;;5050138;28;20099;-53
2024/02/05 09:02:43;;;;;;;19.10;11.40;;;;;;;;;;5049757;28;20039;-57
2024/02/05 09:05:10;;;;;;;15.93;11.18;;;;;;;;;;5049932;28;20104;-56
2024/02/05 09:07:36;;;;;;;16.02;9.90;;;;;;;;;;5050390;28;20077;-57
2024/02/05 09:10:02;;;;;;;13.38;7.80;;;;;;;;;;5049701;28;20017;-58
2024/02/05 09:12:28;;;;;;;13.15;7.70;;;;;;;;;;5050561;28;20029;-56
2024/02/05 09:14:54;;;;;;;15.25;8.35;;;;;;;;;;5048498;28;20025;-57
2024/02/05 09:17:20;;;;;;;17.90;10.95;;;;;;;;;;5048950;28;20564;-56
2024/02/05 09:19:47;;;;;;;14.02;8.60;;;;;;;;;;5049461;28;20029;-57
2024/02/05 09:22:13;;;;;;;22.02;14.52;;;;;;;;;;5047689;28;20070;-57
2024/02/05 09:24:39;;;;;;;16.40;9.10;;;;;;;;;;5048010;28;20029;-58
2024/02/05 09:27:05;;;;;;;19.85;12.63;;;;;;;;;;5049137;28;20025;-56
2024/02/05 09:29:32;;;;;;;17.58;9.98;;;;;;;;;;5049368;28;20364;-57
2024/02/05 09:31:58;;;;;;;20.17;10.30;;;;;;;;;;5048992;28;20033;-55
2024/02/05 09:34:24;;;;;;;15.18;8.73;;;;;;;;;;5049136;28;20776;-54
2024/02/05 09:36:51;;;;;;;29.65;12.57;;;;;;;;;;5038661;28;20032;-58
2024/02/05 09:39:17;;;;;;;15.45;8.60;;;;;;;;;;5039294;28;20025;-57
2024/02/05 09:41:44;;;;;;;13.38;8.00;;;;;;;;;;5037704;28;20415;-59
2024/02/05 09:44:11;;;;;;;17.45;9.57;;;;;;;;;;5035847;28;20478;-55
2024/02/05 09:46:38;;;;;;;17.67;8.85;;;;;;;;;;5030330;28;20104;-56
2024/02/05 09:49:04;;;;;;;14.45;10.02;;;;;;;;;;5029632;28;20026;-52
2024/02/05 09:51:32;;;;;;;17.85;9.63;;;;;;;;;;5041884;28;20447;-52
2024/02/05 09:53:58;;;;;;;19.90;11.23;;;;;;;;;;5051805;28;20037;-54
2024/02/05 09:56:28;;;;;;;14.15;9.07;;;;;;;;;;5043919;28;20041;-53
2024/02/05 09:58:54;;;;;;;13.85;9.00;;;;;;;;;;5035971;28;20104;-55
2024/02/05 10:01:20;;;;;;;16.90;8.68;;;;;;;;;;5032673;28;20033;-57
2024/02/05 10:03:50;;;;;;;17.05;9.30;;;;;;;;;;5033153;28;20048;-51
2024/02/05 10:06:17;;;;;;;17.05;9.60;;;;;;;;;;5033200;28;20112;-52
2024/02/05 10:08:44;;;;;;;20.55;9.10;;;;;;;;;;5032288;28;20025;-53
2024/02/05 10:11:11;;;;;;;13.80;8.85;;;;;;;;;;5033157;28;20026;-54
2024/02/05 10:13:40;;;;;;;16.42;9.07;;;;;;;;;;5033144;28;20025;-54
2024/02/05 10:16:06;;;;;;;15.70;11.18;;;;;;;;;;5033471;28;20025;-55
2024/02/05 10:18:32;;;;;;;13.13;8.05;;;;;;;;;;5033285;28;20025;-55
2024/02/05 10:21:00;;;;;;;26.02;9.05;;;;;;;;;;5035476;28;20030;-56
2024/02/05 10:23:26;;;;;;;20.02;9.48;;;;;;;;;;5042113;28;20375;-53
2024/02/05 10:25:56;;;;;;;15.80;10.75;;;;;;;;;;5046378;28;20033;-54
2024/02/05 10:28:22;;;;;;;15.50;9.40;;;;;;;;;;5044422;28;20058;-54
2024/02/05 10:30:48;;;;;;;14.60;9.38;;;;;;;;;;5052174;28;20028;-51
2024/02/05 10:33:17;;;;;;;35.15;10.43;;;;;;;;;;5045672;28;20113;-54
2024/02/05 10:35:43;;;;;;;18.08;10.55;;;;;;;;;;5052237;28;20093;-55
2024/02/05 10:38:12;;;;;;;28.10;11.43;;;;;;;;;;5052598;28;20071;-56
2024/02/05 10:40:38;;;;;;;20.33;15.20;;;;;;;;;;5050693;28;20032;-50
2024/02/05 10:43:05;;;;;;;15.20;10.45;;;;;;;;;;5052285;28;20406;-53
2024/02/05 10:45:34;;;;;;;16.15;9.93;;;;;;;;;;5052626;28;20025;-55
2024/02/05 10:48:00;;;;;;;13.00;7.78;;;;;;;;;;5034836;28;20017;-55
2024/02/05 10:50:26;;;;;;;16.80;10.57;;;;;;;;;;5052119;28;20100;-52
2024/02/05 10:52:52;;;;;;;25.70;11.40;;;;;;;;;;5052285;28;20057;-54
2024/02/05 10:55:18;;;;;;;20.40;9.95;;;;;;;;;;5052195;28;20028;-55
2024/02/05 10:57:45;;;;;;;19.33;9.40;;;;;;;;;;5051617;28;20032;-57
2024/02/05 11:00:12;;;;;;;13.00;7.50;;;;;;;;;;5052886;28;20071;-60
2024/02/05 11:02:43;;;;;;;18.42;11.85;;;;;;;;;;5051926;28;20032;-56
2024/02/05 11:05:12;;;;;;;19.65;10.05;;;;;;;;;;5052039;28;20033;-59
2024/02/05 11:07:47;;;;;;;13.43;8.13;;;;;;;;;;5050464;28;20502;-60
2024/02/05 11:10:16;;;;;;;13.68;8.73;;;;;;;;;;5051430;28;20104;-58
2024/02/05 11:12:43;;;;;;;21.20;10.60;;;;;;;;;;5050085;28;20040;-58
2024/02/05 11:15:11;;;;;;;13.02;7.80;;;;;;;;;;5051722;28;20033;-61
2024/02/05 11:17:37;;;;;;;16.92;9.75;;;;;;;;;;5050477;28;20122;-60
2024/02/05 11:20:05;;;;;;;16.75;9.57;;;;;;;;;;5051694;28;20108;-60
2024/02/05 11:22:31;;;;;;;12.80;7.47;;;;;;;;;;5051455;28;20479;-58
2024/02/05 11:24:57;;;;;;;14.38;8.63;;;;;;;;;;5051971;28;20614;-58
2024/02/05 11:27:24;;;;;;;21.48;8.85;;;;;;;;;;5051892;28;20069;-59
2024/02/05 11:29:51;;;;;;;17.60;10.02;;;;;;;;;;5051591;28;20040;-59
2024/02/05 11:32:17;;;;;;;17.83;9.38;;;;;;;;;;5051322;28;20033;-59
2024/02/05 11:34:43;;;;;;;16.77;10.00;;;;;;;;;;5051109;28;20148;-57
2024/02/05 11:37:27;;;;;;;16.45;9.57;;;;;;;;;;5050745;28;20078;-60
2024/02/05 11:39:55;;;;;;;17.98;8.35;;;;;;;;;;5049856;28;20127;-59
2024/02/05 11:42:21;;;;;;;13.77;8.27;;;;;;;;;;5049454;28;20036;-57
2024/02/05 11:44:48;;;;;;;13.63;7.78;;;;;;;;;;5050700;28;20398;-59
2024/02/05 11:47:14;;;;;;;16.17;9.30;;;;;;;;;;5054026;28;20093;-58
2024/02/05 11:49:40;;;;;;;19.33;9.95;;;;;;;;;;5053183;28;20029;-58
2024/02/05 11:52:06;;;;;;;27.38;10.25;;;;;;;;;;5044373;28;20404;-57
2024/02/05 11:54:33;;;;;;;20.17;9.75;;;;;;;;;;5041158;28;20026;-60
2024/02/05 11:56:59;;;;;;;16.90;9.18;;;;;;;;;;5049386;28;20021;-59
2024/02/05 11:59:25;;;;;;;16.95;8.98;;;;;;;;;;5050501;28;20021;-58
2024/02/05 12:01:51;;;;;;;12.45;7.82;;;;;;;;;;5049413;28;20019;-60
2024/02/05 12:04:18;;;;;;;36.63;10.48;;;;;;;;;;5050629;28;20025;-58
2024/02/05 12:06:44;;;;;;;14.77;8.73;;;;;;;;;;5050261;28;20040;-59
2024/02/05 12:09:12;;;;;;;18.98;8.65;;;;;;;;;;5050724;28;20060;-60
2024/02/05 12:11:42;;;;;;;15.43;9.77;;;;;;;;;;5050484;28;20029;-59
2024/02/05 12:14:10;;;;;;;14.05;9.25;;;;;;;;;;5049073;28;20520;-60
2024/02/05 12:16:37;;;;;;;14.82;9.07;;;;;;;;;;5048926;28;20025;-58
2024/02/05 12:19:03;;;;;;;12.27;7.25;;;;;;;;;;5050521;28;20025;-59
2024/02/05 12:21:31;;;;;;;14.50;8.07;;;;;;;;;;5049994;28;20031;-50
2024/02/05 12:23:58;;;;;;;12.73;7.68;;;;;;;;;;5050443;28;20029;-57
2024/02/05 12:26:24;;;;;;;21.23;9.23;;;;;;;;;;5050309;28;20029;-59
2024/02/05 12:28:51;;;;;;;12.77;7.47;;;;;;;;;;5049966;28;20033;-58
2024/02/05 12:31:24;;;;;;;16.33;10.18;;;;;;;;;;5050198;28;20024;-59
2024/02/05 12:33:59;;;;;;;25.85;10.23;;;;;;;;;;5051144;28;20021;-59
2024/02/05 12:36:26;;;;;;;14.63;7.35;;;;;;;;;;5050016;28;20017;-59
2024/02/05 12:38:53;;;;;;;9.30;5.50;;;;;;;;;;5050758;28;20029;-59
2024/02/05 12:41:19;;;;;;;14.57;7.75;;;;;;;;;;5049538;28;20052;-58
2024/02/05 12:43:45;;;;;;;16.48;7.55;;;;;;;;;;5047634;28;20065;-58
2024/02/05 12:46:12;;;;;;;12.75;6.68;;;;;;;;;;5042408;28;20085;-59
2024/02/05 12:48:38;;;;;;;12.27;7.20;;;;;;;;;;5048819;28;20029;-58
2024/02/05 12:51:08;;;;;;;18.95;9.02;;;;;;;;;;5049496;28;20088;-59
2024/02/05 12:53:34;;;;;;;12.68;7.07;;;;;;;;;;5041257;28;20083;-56
2024/02/05 12:56:04;;;;;;;13.60;7.00;;;;;;;;;;5052376;22;20151;-53
2024/02/05 12:58:30;;;;;;;16.27;7.50;;;;;;;;;;5042913;28;20044;-49
2024/02/05 13:00:56;;;;;;;12.68;7.25;;;;;;;;;;5044455;28;20029;-52
2024/02/05 13:03:22;;;;;;;21.27;8.55;;;;;;;;;;5033071;28;20059;-49
2024/02/05 13:05:48;;;;;;;12.18;6.90;;;;;;;;;;5016469;28;20045;-55
2024/02/05 13:08:15;;;;;;;22.63;8.88;;;;;;;;;;5015054;28;20037;-51
2024/02/05 13:10:48;;;;;;;14.40;6.88;;;;;;;;;;5010453;28;20026;-52
2024/02/05 13:13:14;;;;;;;20.80;8.85;;;;;;;;;;5004024;28;20420;-52
2024/02/05 13:15:41;;;;;;;15.93;6.53;;;;;;;;;;5018867;28;20030;-52
2024/02/05 13:18:11;;;;;;;20.27;8.10;;;;;;;;;;5012843;28;20023;-53
2024/02/05 13:20:37;;;;;;;16.42;8.65;;;;;;;;;;5010093;28;20330;-50
2024/02/05 13:23:04;;;;;;;13.20;7.40;;;;;;;;;;5009963;28;20026;-55
2024/02/05 13:25:30;;;;;;;12.38;7.05;;;;;;;;;;5010020;28;20030;-54
2024/02/05 13:27:56;;;;;;;19.20;8.55;;;;;;;;;;5009401;28;20032;-55
2024/02/05 13:30:23;;;;;;;16.30;9.80;;;;;;;;;;5019644;28;20025;-53
2024/02/05 13:32:49;;;;;;;18.98;8.70;;;;;;;;;;5029056;28;20391;-56
2024/02/05 13:35:15;;;;;;;17.77;9.00;;;;;;;;;;5029944;28;20408;-51
2024/02/05 13:37:41;;;;;;;28.95;9.93;;;;;;;;;;5030293;28;20489;-56
2024/02/05 13:40:08;;;;;;;20.95;9.70;;;;;;;;;;5030039;28;20022;-49
2024/02/05 13:42:41;;;;;;;13.73;8.25;;;;;;;;;;5028721;28;20510;-55
2024/02/05 13:45:08;;;;;;;12.02;7.00;;;;;;;;;;5030615;28;20033;-57
2024/02/05 13:47:35;;;;;;;14.60;8.45;;;;;;;;;;5030333;28;20026;-54
2024/02/05 13:50:02;;;;;;;13.70;7.57;;;;;;;;;;5029857;28;20493;-58
2024/02/05 13:52:29;;;;;;;12.80;7.63;;;;;;;;;;5029990;28;20105;-54
2024/02/05 13:54:55;;;;;;;11.48;7.18;;;;;;;;;;5030331;28;20025;-50
2024/02/05 13:57:21;;;;;;;21.42;8.77;;;;;;;;;;5030105;28;20118;-52
2024/02/05 13:59:47;;;;;;;11.70;6.90;;;;;;;;;;5030312;28;20467;-54
2024/02/05 14:02:13;;;;;;;12.30;7.60;;;;;;;;;;5029643;28;20026;-55
2024/02/05 14:04:39;;;;;;;15.52;8.80;;;;;;;;;;5030214;28;20025;-57
2024/02/05 14:07:05;;;;;;;11.10;6.45;;;;;;;;;;5029873;28;20549;-56
2024/02/05 14:09:31;;;;;;;22.67;8.70;;;;;;;;;;5029820;28;20105;-56
2024/02/05 14:11:57;;;;;;;11.30;6.53;;;;;;;;;;5029732;28;20029;-52
2024/02/05 14:14:23;;;;;;;14.38;8.60;;;;;;;;;;5028483;28;20107;-56
2024/02/05 14:16:50;;;;;;;16.25;9.90;;;;;;;;;;5029461;28;20022;-54
2024/02/05 14:19:16;;;;;;;17.70;10.13;;;;;;;;;;5029733;28;20045;-51
2024/02/05 14:21:42;;;;;;;29.17;9.77;;;;;;;;;;5028373;28;20049;-55